createdAt,value
2023-03-20T00:00:55.624Z,99285.69
2023-03-20T00:01:59.511Z,99283.03
2023-03-20T00:03:04.365Z,99286.56
2023-03-20T00:04:12.877Z,99283.03
2023-03-20T00:05:24.500Z,99278.69
2023-03-20T00:06:32.530Z,99278.69
2023-03-20T00:07:39.248Z,99278.69
2023-03-20T00:08:45.680Z,99284.94
2023-03-20T00:09:49.669Z,99284.94
2023-03-20T00:10:53.385Z,99277.09
2023-03-20T00:11:57.068Z,99281.44
2023-03-20T00:13:01.722Z,99282.38
2023-03-20T00:14:16.282Z,99281.72
2023-03-20T00:15:28.972Z,99279.94
2023-03-20T00:16:39.597Z,99284.38
2023-03-20T00:17:43.222Z,99280.34
2023-03-20T00:18:47.028Z,99290.75
2023-03-20T00:19:51.093Z,99284.38
2023-03-20T00:20:55.008Z,99279.94
2023-03-20T00:21:59.252Z,99285.25
2023-03-20T00:23:04.230Z,99279.84
2023-03-20T00:24:08.436Z,99282.50
2023-03-20T00:25:22.565Z,99286.00
2023-03-20T00:26:33.826Z,99282.50
2023-03-20T00:27:37.579Z,99285.44
2023-03-20T00:28:46.785Z,99281.94
2023-03-20T00:29:50.528Z,99285.44
2023-03-20T00:30:54.079Z,99284.59
2023-03-20T00:31:58.576Z,99281.09
2023-03-20T00:33:02.657Z,99288.09
2023-03-20T00:34:13.289Z,99279.41
2023-03-20T00:35:22.017Z,99277.50
2023-03-20T00:36:26.087Z,99279.06
2023-03-20T00:37:29.908Z,99276.53
2023-03-20T00:38:33.995Z,99274.00
2023-03-20T00:39:37.545Z,99268.69
2023-03-20T00:40:41.395Z,99273.78
2023-03-20T00:41:57.273Z,99272.91
2023-03-20T00:43:04.884Z,99271.13
2023-03-20T00:44:32.615Z,99273.03
2023-03-20T00:45:37.504Z,99266.13
2023-03-20T00:46:41.952Z,99272.28
2023-03-20T00:47:49.121Z,99273.13
2023-03-20T00:48:53.610Z,99272.41
2023-03-20T00:49:58.376Z,99271.53
2023-03-20T00:51:02.206Z,99270.78
2023-03-20T00:52:06.605Z,99270.88
2023-03-20T00:53:12.104Z,99270.88
2023-03-20T00:54:18.196Z,99266.53
2023-03-20T00:55:28.454Z,99265.78
2023-03-20T00:56:45.520Z,99270.13
2023-03-20T00:57:58.008Z,99265.78
2023-03-20T00:59:04.229Z,99265.91
2023-03-20T01:00:36.519Z,99267.66
2023-03-20T01:01:40.379Z,99275.72
2023-03-20T01:02:44.255Z,99267.78
2023-03-20T01:03:48.109Z,99264.28
2023-03-20T01:04:52.709Z,99267.88
2023-03-20T01:05:57.586Z,99266.94
2023-03-20T01:07:01.859Z,99270.63
2023-03-20T01:08:31.824Z,99272.44
2023-03-20T01:09:35.463Z,99268.09
2023-03-20T01:10:39.633Z,99268.00
2023-03-20T01:11:46.743Z,99268.09
2023-03-20T01:12:50.406Z,99261.00
2023-03-20T01:13:54.013Z,99266.28
2023-03-20T01:14:59.052Z,99268.00
2023-03-20T01:16:02.661Z,99262.88
2023-03-20T01:17:17.198Z,99261.84
2023-03-20T01:18:24.692Z,99266.38
2023-03-20T01:19:28.411Z,99268.09
2023-03-20T01:20:32.323Z,99265.53
2023-03-20T01:21:37.114Z,99269.03
2023-03-20T01:22:40.702Z,99269.91
2023-03-20T01:23:44.829Z,99269.13
2023-03-20T01:24:48.752Z,99266.47
2023-03-20T01:25:52.853Z,99263.94
2023-03-20T01:26:56.490Z,99265.72
2023-03-20T01:28:00.413Z,99260.53
2023-03-20T01:29:05.607Z,99262.53
2023-03-20T01:30:35.470Z,99258.19
2023-03-20T01:31:39.077Z,99267.94
2023-03-20T01:32:44.099Z,99267.09
2023-03-20T01:33:47.996Z,99265.38
2023-03-20T01:34:53.225Z,99261.78
2023-03-20T01:35:57.584Z,99265.28
2023-03-20T01:37:01.117Z,99266.22
2023-03-20T01:38:27.580Z,99266.34
2023-03-20T01:39:37.081Z,99264.72
2023-03-20T01:40:52.818Z,99260.25
2023-03-20T01:41:57.512Z,99256.75
2023-03-20T01:43:03.490Z,99263.88
2023-03-20T01:44:31.288Z,99255.91
2023-03-20T01:45:36.945Z,99256.97
2023-03-20T01:46:41.500Z,99263.13
2023-03-20T01:47:45.353Z,99265.78
2023-03-20T01:48:52.116Z,99264.06
2023-03-20T01:50:32.781Z,99265.88
2023-03-20T01:51:37.812Z,99259.81
2023-03-20T01:52:41.601Z,99265.97
2023-03-20T01:54:14.326Z,99254.59
2023-03-20T01:55:20.876Z,99258.53
2023-03-20T01:56:25.872Z,99267.22
2023-03-20T01:57:29.596Z,99263.72
2023-03-20T01:58:42.057Z,99260.22
2023-03-20T01:59:56.153Z,99264.69
2023-03-20T02:01:00.574Z,99264.75
2023-03-20T02:02:07.446Z,99263.16
2023-03-20T02:03:11.441Z,99261.47
2023-03-20T02:04:16.844Z,99267.59
2023-03-20T02:05:23.359Z,99267.50
2023-03-20T02:06:27.057Z,99269.31
2023-03-20T02:07:33.238Z,99270.16
2023-03-20T02:08:47.492Z,99263.91
2023-03-20T02:09:52.060Z,99270.88
2023-03-20T02:11:01.138Z,99266.47
2023-03-20T02:12:06.722Z,99262.94
2023-03-20T02:13:11.280Z,99266.53
2023-03-20T02:14:16.125Z,99259.28
2023-03-20T02:15:19.698Z,99264.56
2023-03-20T02:16:23.783Z,99262.88
2023-03-20T02:17:27.784Z,99255.78
2023-03-20T02:18:32.723Z,99261.06
2023-03-20T02:20:04.592Z,99265.53
2023-03-20T02:21:29.243Z,99262.19
2023-03-20T02:23:10.985Z,99261.25
2023-03-20T02:24:47.630Z,99260.41
2023-03-20T02:26:06.901Z,99265.69
2023-03-20T02:27:35.238Z,99266.53
2023-03-20T02:29:28.686Z,99263.25
2023-03-20T02:31:01.414Z,99263.38
2023-03-20T02:32:50.035Z,99268.66
2023-03-20T02:34:22.487Z,99262.50
2023-03-20T02:36:12.301Z,99259.94
2023-03-20T02:37:37.714Z,99267.13
2023-03-20T02:39:08.146Z,99267.13
2023-03-20T02:40:20.682Z,99256.75
2023-03-20T02:41:44.280Z,99263.75
2023-03-20T02:43:25.705Z,99259.28
2023-03-20T02:44:51.698Z,99264.78
2023-03-20T02:46:14.101Z,99264.59
2023-03-20T02:47:49.627Z,99262.69
2023-03-20T02:49:10.071Z,99265.34
2023-03-20T02:50:34.015Z,99262.78
2023-03-20T02:51:54.867Z,99260.25
2023-03-20T02:53:32.720Z,99254.84
2023-03-20T02:55:07.312Z,99258.44
2023-03-20T02:56:57.506Z,99254.09
2023-03-20T02:58:16.110Z,99257.59
2023-03-20T02:59:48.055Z,99259.41
2023-03-20T03:01:16.070Z,99257.66
2023-03-20T03:02:48.703Z,99250.69
2023-03-20T03:04:02.333Z,99257.66
2023-03-20T03:05:25.840Z,99253.31
2023-03-20T03:06:37.488Z,99253.31
2023-03-20T03:07:47.113Z,99244.53
2023-03-20T03:09:02.291Z,99251.84
2023-03-20T03:10:18.316Z,99252.47
2023-03-20T03:11:22.407Z,99248.97
2023-03-20T03:12:36.150Z,99249.84
2023-03-20T03:13:47.103Z,99252.47
2023-03-20T03:15:02.380Z,99245.38
2023-03-20T03:16:24.697Z,99246.22
2023-03-20T03:17:34.362Z,99248.88
2023-03-20T03:18:41.188Z,99248.88
2023-03-20T03:19:52.805Z,99241.88
2023-03-20T03:21:02.751Z,99238.38
2023-03-20T03:22:07.830Z,99252.59
2023-03-20T03:23:27.941Z,99242.94
2023-03-20T03:24:43.093Z,99243.88
2023-03-20T03:25:47.451Z,99237.75
2023-03-20T03:26:53.833Z,99237.81
2023-03-20T03:28:17.134Z,99242.09
2023-03-20T03:29:25.036Z,99245.69
2023-03-20T03:30:34.924Z,99243.88
2023-03-20T03:31:38.997Z,99239.56
2023-03-20T03:33:01.281Z,99248.34
2023-03-20T03:34:09.071Z,99244.84
2023-03-20T03:35:21.527Z,99243.31
2023-03-20T03:37:14.112Z,99238.03
2023-03-20T03:38:45.148Z,99238.97
2023-03-20T03:40:11.945Z,99235.59
2023-03-20T03:41:46.252Z,99236.72
2023-03-20T03:43:16.613Z,99246.25
2023-03-20T03:44:32.076Z,99233.97
2023-03-20T03:46:02.790Z,99241.06
2023-03-20T03:47:16.788Z,99242.75
2023-03-20T03:48:38.235Z,99238.41
2023-03-20T03:49:54.774Z,99238.41
2023-03-20T03:51:10.346Z,99242.00
2023-03-20T03:52:23.555Z,99237.66
2023-03-20T03:53:37.016Z,99240.09
2023-03-20T03:54:57.546Z,99237.56
2023-03-20T03:56:11.175Z,99235.00
2023-03-20T03:57:24.714Z,99235.88
2023-03-20T03:58:48.521Z,99237.66
2023-03-20T03:59:53.808Z,99236.91
2023-03-20T04:01:01.585Z,99235.13
2023-03-20T04:02:09.399Z,99242.38
2023-03-20T04:03:14.230Z,99238.78
2023-03-20T04:04:27.269Z,99240.53
2023-03-20T04:05:40.650Z,99240.53
2023-03-20T04:06:44.419Z,99243.06
2023-03-20T04:07:54.956Z,99238.63
2023-03-20T04:08:58.565Z,99235.13
2023-03-20T04:10:02.602Z,99236.91
2023-03-20T04:11:06.611Z,99244.19
2023-03-20T04:12:37.506Z,99242.59
2023-03-20T04:13:41.359Z,99237.41
2023-03-20T04:14:45.400Z,99240.91
2023-03-20T04:15:49.199Z,99242.69
2023-03-20T04:16:53.053Z,99247.13
2023-03-20T04:17:56.871Z,99244.56
2023-03-20T04:19:01.641Z,99241.91
2023-03-20T04:20:07.732Z,99249.78
2023-03-20T04:21:12.364Z,99249.84
2023-03-20T04:22:16.078Z,99248.91
2023-03-20T04:23:19.725Z,99251.66
2023-03-20T04:24:23.491Z,99244.56
2023-03-20T04:25:27.536Z,99247.13
2023-03-20T04:26:31.357Z,99235.78
2023-03-20T04:27:34.882Z,99243.72
2023-03-20T04:28:39.309Z,99241.91
2023-03-20T04:29:43.664Z,99236.63
2023-03-20T04:30:58.744Z,99248.16
2023-03-20T04:32:03.067Z,99240.22
2023-03-20T04:33:07.569Z,99241.06
2023-03-20T04:34:11.725Z,99244.50
2023-03-20T04:35:15.863Z,99236.56
2023-03-20T04:36:19.604Z,99247.88
2023-03-20T04:37:23.299Z,99245.25
2023-03-20T04:38:27.280Z,99244.28
2023-03-20T04:39:31.818Z,99245.13
2023-03-20T04:40:35.605Z,99246.19
2023-03-20T04:41:39.422Z,99248.75
2023-03-20T04:42:43.468Z,99244.19
2023-03-20T04:43:47.111Z,99250.34
2023-03-20T04:44:50.785Z,99243.22
2023-03-20T04:45:54.859Z,99249.38
2023-03-20T04:46:59.191Z,99249.22
2023-03-20T04:48:02.902Z,99242.09
2023-03-20T04:49:08.272Z,99248.25
2023-03-20T04:50:14.076Z,99242.00
2023-03-20T04:51:18.207Z,99246.47
2023-03-20T04:52:21.877Z,99248.25
2023-03-20T04:53:27.201Z,99250.06
2023-03-20T04:54:31.113Z,99249.22
2023-03-20T04:55:35.186Z,99255.25
2023-03-20T04:56:39.021Z,99256.19
2023-03-20T04:57:42.672Z,99247.78
2023-03-20T04:58:46.217Z,99253.75
2023-03-20T04:59:49.786Z,99260.53
2023-03-20T05:00:53.673Z,99253.44
2023-03-20T05:01:57.302Z,99250.69
2023-03-20T05:03:01.627Z,99251.66
2023-03-20T05:04:05.791Z,99248.03
2023-03-20T05:05:09.740Z,99248.16
2023-03-20T05:06:13.506Z,99251.53
2023-03-20T05:07:17.121Z,99246.47
2023-03-20T05:08:20.804Z,99249.84
2023-03-20T05:09:24.555Z,99251.53
2023-03-20T05:10:28.308Z,99253.28
2023-03-20T05:11:32.149Z,99259.69
2023-03-20T05:12:35.889Z,99258.00
2023-03-20T05:13:39.402Z,99255.16
2023-03-20T05:14:42.917Z,99259.41
2023-03-20T05:15:46.524Z,99256.47
2023-03-20T05:16:50.310Z,99263.66
2023-03-20T05:17:55.253Z,99254.75
2023-03-20T05:18:59.429Z,99260.28
2023-03-20T05:20:03.887Z,99261.75
2023-03-20T05:21:08.681Z,99259.88
2023-03-20T05:22:12.248Z,99262.06
2023-03-20T05:23:16.224Z,99261.97
2023-03-20T05:24:19.859Z,99265.19
2023-03-20T05:25:23.677Z,99263.19
2023-03-20T05:26:27.698Z,99261.19
2023-03-20T05:27:31.691Z,99268.84
2023-03-20T05:28:35.507Z,99270.34
2023-03-20T05:29:39.750Z,99269.59
2023-03-20T05:30:43.528Z,99272.06
2023-03-20T05:31:47.952Z,99271.94
2023-03-20T05:32:53.038Z,99269.88
2023-03-20T05:33:57.528Z,99268.06
2023-03-20T05:35:01.385Z,99272.31
2023-03-20T05:36:06.402Z,99273.81
2023-03-20T05:37:10.411Z,99271.72
2023-03-20T05:38:17.307Z,99271.53
2023-03-20T05:39:22.578Z,99271.44
2023-03-20T05:40:26.492Z,99271.31
2023-03-20T05:41:30.324Z,99267.72
2023-03-20T05:42:37.522Z,99266.69
2023-03-20T05:43:41.518Z,99273.69
2023-03-20T05:44:45.726Z,99270.09
2023-03-20T05:45:49.805Z,99272.56
2023-03-20T05:46:53.618Z,99270.63
2023-03-20T05:47:57.210Z,99264.69
2023-03-20T05:49:01.221Z,99278.78
2023-03-20T05:50:06.334Z,99269.69
2023-03-20T05:51:09.988Z,99269.03
2023-03-20T05:52:13.622Z,99271.59
2023-03-20T05:53:17.246Z,99272.56
2023-03-20T05:54:20.669Z,99272.22
2023-03-20T05:55:24.233Z,99274.69
2023-03-20T05:56:27.803Z,99277.53
2023-03-20T05:57:31.797Z,99272.22
2023-03-20T05:58:36.655Z,99274.78
2023-03-20T05:59:40.575Z,99278.19
2023-03-20T06:00:44.133Z,99279.91
2023-03-20T06:01:47.701Z,99272.91
2023-03-20T06:02:51.463Z,99273.63
2023-03-20T06:03:55.460Z,99274.50
2023-03-20T06:04:59.208Z,99270.03
2023-03-20T06:06:04.141Z,99275.56
2023-03-20T06:07:08.185Z,99274.69
2023-03-20T06:08:12.309Z,99277.25
2023-03-20T06:09:16.025Z,99280.50
2023-03-20T06:10:20.870Z,99273.28
2023-03-20T06:11:25.049Z,99271.78
2023-03-20T06:12:28.647Z,99278.88
2023-03-20T06:13:33.000Z,99275.59
2023-03-20T06:14:36.583Z,99282.19
2023-03-20T06:15:40.620Z,99282.19
2023-03-20T06:16:44.276Z,99282.19
2023-03-20T06:17:47.921Z,99279.22
2023-03-20T06:18:51.796Z,99282.44
2023-03-20T06:19:55.670Z,99280.44
2023-03-20T06:20:59.508Z,99282.78
2023-03-20T06:22:03.457Z,99279.84
2023-03-20T06:23:07.636Z,99289.94
2023-03-20T06:24:11.243Z,99286.97
2023-03-20T06:25:15.815Z,99286.16
2023-03-20T06:26:19.789Z,99285.84
2023-03-20T06:27:23.957Z,99287.22
2023-03-20T06:28:28.131Z,99282.03
2023-03-20T06:29:32.309Z,99290.66
2023-03-20T06:30:36.825Z,99280.50
2023-03-20T06:31:40.703Z,99284.06
2023-03-20T06:32:48.352Z,99290.81
2023-03-20T06:33:52.697Z,99283.44
2023-03-20T06:34:56.635Z,99284.78
2023-03-20T06:36:00.478Z,99285.13
2023-03-20T06:37:04.225Z,99286.13
2023-03-20T06:38:07.798Z,99277.91
2023-03-20T06:39:11.686Z,99285.94
2023-03-20T06:40:15.726Z,99279.16
2023-03-20T06:41:33.781Z,99287.59
2023-03-20T06:42:38.665Z,99293.66
2023-03-20T06:43:43.051Z,99281.47
2023-03-20T06:44:47.541Z,99284.81
2023-03-20T06:45:51.270Z,99294.44
2023-03-20T06:46:55.209Z,99290.50
2023-03-20T06:48:00.312Z,99287.19
2023-03-20T06:49:04.136Z,99281.88
2023-03-20T06:50:09.339Z,99277.47
2023-03-20T06:51:13.884Z,99280.31
2023-03-20T06:52:33.905Z,99278.97
2023-03-20T06:53:44.189Z,99277.53
2023-03-20T06:54:48.731Z,99277.28
2023-03-20T06:55:52.669Z,99282.22
2023-03-20T06:56:56.390Z,99281.94
2023-03-20T06:58:00.180Z,99277.69
2023-03-20T06:59:08.853Z,99277.41
2023-03-20T07:00:14.386Z,99288.53
2023-03-20T07:01:20.502Z,99285.00
2023-03-20T07:02:25.976Z,99280.25
2023-03-20T07:03:30.313Z,99291.69
2023-03-20T07:04:34.679Z,99289.31
2023-03-20T07:05:40.553Z,99287.44
2023-03-20T07:06:44.243Z,99293.06
2023-03-20T07:07:47.900Z,99294.56
2023-03-20T07:09:03.833Z,99285.09
2023-03-20T07:10:12.593Z,99287.91
2023-03-20T07:11:19.600Z,99290.16
2023-03-20T07:12:30.547Z,99280.41
2023-03-20T07:13:34.459Z,99287.22
2023-03-20T07:14:38.281Z,99293.13
2023-03-20T07:15:57.503Z,99291.72
2023-03-20T07:17:05.336Z,99292.31
2023-03-20T07:18:09.290Z,99296.69
2023-03-20T07:19:13.629Z,99289.75
2023-03-20T07:20:24.456Z,99296.94
2023-03-20T07:21:28.827Z,99287.13
2023-03-20T07:22:33.031Z,99284.97
2023-03-20T07:23:36.556Z,99286.44
2023-03-20T07:24:40.154Z,99285.13
2023-03-20T07:25:45.997Z,99281.16
2023-03-20T07:26:49.927Z,99278.44
2023-03-20T07:27:53.746Z,99278.53
2023-03-20T07:28:57.590Z,99275.00
2023-03-20T07:30:02.196Z,99275.97
2023-03-20T07:31:06.368Z,99275.25
2023-03-20T07:32:10.652Z,99279.06
2023-03-20T07:33:14.573Z,99273.22
2023-03-20T07:34:18.635Z,99276.66
2023-03-20T07:35:22.633Z,99276.03
2023-03-20T07:36:26.618Z,99280.59
2023-03-20T07:37:30.409Z,99277.22
2023-03-20T07:38:36.986Z,99276.72
2023-03-20T07:39:43.732Z,99274.09
2023-03-20T07:40:49.034Z,99279.31
2023-03-20T07:41:53.010Z,99271.72
2023-03-20T07:42:56.554Z,99273.13
2023-03-20T07:44:00.317Z,99266.72
2023-03-20T07:45:14.316Z,99275.47
2023-03-20T07:46:18.285Z,99279.34
2023-03-20T07:47:22.998Z,99273.78
2023-03-20T07:48:26.793Z,99279.97
2023-03-20T07:49:30.937Z,99271.09
2023-03-20T07:50:35.293Z,99279.88
2023-03-20T07:51:38.935Z,99285.63
2023-03-20T07:52:51.436Z,99288.56
2023-03-20T07:53:54.956Z,99283.66
2023-03-20T07:54:58.715Z,99289.38
2023-03-20T07:56:06.454Z,99289.22
2023-03-20T07:57:10.223Z,99287.09
2023-03-20T07:58:14.011Z,99287.97
2023-03-20T07:59:18.445Z,99291.34
2023-03-20T08:00:22.554Z,99293.16
2023-03-20T08:01:26.685Z,99293.16
2023-03-20T08:02:30.413Z,99293.16
2023-03-20T08:03:39.652Z,99287.31
2023-03-20T08:04:48.337Z,99292.59
2023-03-20T08:05:53.950Z,99292.06
2023-03-20T08:06:57.878Z,99291.84
2023-03-20T08:08:02.101Z,99292.13
2023-03-20T08:09:09.082Z,99289.63
2023-03-20T08:10:13.069Z,99288.09
2023-03-20T08:11:17.009Z,99299.28
2023-03-20T08:12:22.161Z,99292.34
2023-03-20T08:13:27.710Z,99292.78
2023-03-20T08:14:31.806Z,99295.59
2023-03-20T08:15:35.795Z,99295.19
2023-03-20T08:16:41.734Z,99292.91
2023-03-20T08:17:46.402Z,99303.44
2023-03-20T08:18:50.819Z,99298.34
2023-03-20T08:19:54.734Z,99293.00
2023-03-20T08:20:58.656Z,99301.44
2023-03-20T08:22:03.352Z,99300.88
2023-03-20T08:23:13.677Z,99292.50
2023-03-20T08:24:18.062Z,99293.34
2023-03-20T08:25:22.357Z,99296.91
2023-03-20T08:26:26.226Z,99295.81
2023-03-20T08:27:31.449Z,99292.00
2023-03-20T08:28:51.413Z,99292.59
2023-03-20T08:29:55.782Z,99284.97
2023-03-20T08:30:59.925Z,99286.22
2023-03-20T08:32:03.985Z,99297.09
2023-03-20T08:33:10.853Z,99291.97
2023-03-20T08:34:16.081Z,99288.59
2023-03-20T08:35:32.453Z,99281.00
2023-03-20T08:36:37.784Z,99285.81
2023-03-20T08:37:41.799Z,99292.97
2023-03-20T08:38:45.926Z,99294.72
2023-03-20T08:39:50.217Z,99284.00
2023-03-20T08:40:56.225Z,99282.06
2023-03-20T08:42:01.235Z,99285.50
2023-03-20T08:43:05.827Z,99285.56
2023-03-20T08:44:10.428Z,99282.34
2023-03-20T08:45:26.365Z,99287.19
2023-03-20T08:46:30.341Z,99287.69
2023-03-20T08:47:34.532Z,99276.94
2023-03-20T08:48:38.765Z,99275.59
2023-03-20T08:49:46.518Z,99283.94
2023-03-20T08:50:52.105Z,99284.31
2023-03-20T08:51:56.215Z,99289.44
2023-03-20T08:53:01.338Z,99287.03
2023-03-20T08:54:06.466Z,99296.91
2023-03-20T08:55:15.898Z,99285.50
2023-03-20T08:56:19.734Z,99285.56
2023-03-20T08:57:23.580Z,99284.66
2023-03-20T08:58:27.655Z,99284.31
2023-03-20T08:59:31.501Z,99280.91
2023-03-20T09:00:35.134Z,99286.31
2023-03-20T09:01:49.123Z,99281.84
2023-03-20T09:02:54.067Z,99283.53
2023-03-20T09:03:58.162Z,99282.69
2023-03-20T09:05:02.470Z,99275.78
2023-03-20T09:06:09.342Z,99275.16
2023-03-20T09:07:12.893Z,99272.69
2023-03-20T09:08:17.166Z,99277.81
2023-03-20T09:09:27.330Z,99273.84
2023-03-20T09:10:31.390Z,99278.50
2023-03-20T09:11:35.506Z,99274.13
2023-03-20T09:12:39.971Z,99274.16
2023-03-20T09:13:43.902Z,99272.34
2023-03-20T09:14:50.037Z,99268.41
2023-03-20T09:15:55.228Z,99270.94
2023-03-20T09:16:58.990Z,99271.66
2023-03-20T09:18:04.009Z,99269.59
2023-03-20T09:19:07.674Z,99269.59
2023-03-20T09:20:12.796Z,99275.00
2023-03-20T09:21:18.750Z,99264.47
2023-03-20T09:22:25.064Z,99260.50
2023-03-20T09:23:29.061Z,99266.44
2023-03-20T09:24:34.067Z,99260.03
2023-03-20T09:25:40.305Z,99260.91
2023-03-20T09:26:44.075Z,99269.50
2023-03-20T09:27:50.891Z,99272.44
2023-03-20T09:28:54.508Z,99276.44
2023-03-20T09:29:58.140Z,99268.72
2023-03-20T09:31:02.230Z,99266.91
2023-03-20T09:32:06.810Z,99272.16
2023-03-20T09:33:11.748Z,99274.72
2023-03-20T09:34:16.738Z,99277.66
2023-03-20T09:35:21.155Z,99278.25
2023-03-20T09:36:25.978Z,99278.75
2023-03-20T09:37:30.262Z,99276.41
2023-03-20T09:38:34.132Z,99284.69
2023-03-20T09:39:38.182Z,99279.34
2023-03-20T09:41:01.595Z,99282.56
2023-03-20T09:43:07.472Z,99286.56
2023-03-20T09:44:39.338Z,99294.81
2023-03-20T09:46:20.287Z,99288.19
2023-03-20T09:47:38.846Z,99290.34
2023-03-20T09:48:54.941Z,99290.69
2023-03-20T09:50:28.181Z,99298.59
2023-03-20T09:51:59.346Z,99300.72
2023-03-20T09:53:19.199Z,99291.22
2023-03-20T09:54:52.744Z,99297.84
2023-03-20T09:56:02.193Z,99292.66
2023-03-20T09:57:11.826Z,99293.25
2023-03-20T09:58:42.677Z,99297.34
2023-03-20T10:00:02.881Z,99294.13
2023-03-20T10:01:11.827Z,99298.16
2023-03-20T10:02:30.224Z,99304.28
2023-03-20T10:03:45.081Z,99298.75
2023-03-20T10:04:51.191Z,99305.72
2023-03-20T10:06:12.869Z,99300.72
2023-03-20T10:07:22.986Z,99307.78
2023-03-20T10:08:36.990Z,99301.00
2023-03-20T10:09:41.486Z,99302.81
2023-03-20T10:11:34.400Z,99301.50
2023-03-20T10:13:33.429Z,99304.44
2023-03-20T10:15:12.418Z,99306.75
2023-03-20T10:16:59.208Z,99297.47
2023-03-20T10:18:34.219Z,99299.06
2023-03-20T10:20:05.167Z,99290.38
2023-03-20T10:21:27.309Z,99289.28
2023-03-20T10:22:53.410Z,99285.84
2023-03-20T10:24:05.604Z,99290.50
2023-03-20T10:25:40.030Z,99292.13
2023-03-20T10:26:44.194Z,99288.19
2023-03-20T10:27:58.524Z,99297.16
2023-03-20T10:29:26.624Z,99285.00
2023-03-20T10:31:19.613Z,99283.75
2023-03-20T10:32:50.462Z,99290.91
2023-03-20T10:34:23.080Z,99291.38
2023-03-20T10:36:01.953Z,99293.47
2023-03-20T10:38:00.553Z,99280.88
2023-03-20T10:39:33.779Z,99285.13
2023-03-20T10:40:42.600Z,99294.44
2023-03-20T10:42:02.778Z,99284.63
2023-03-20T10:43:27.624Z,99287.53
2023-03-20T10:44:43.328Z,99280.75
2023-03-20T10:46:29.620Z,99282.44
2023-03-20T10:47:43.145Z,99279.34
2023-03-20T10:49:12.417Z,99282.88
2023-03-20T10:50:23.610Z,99289.50
2023-03-20T10:51:52.714Z,99276.06
2023-03-20T10:52:58.894Z,99270.19
2023-03-20T10:54:24.914Z,99272.75
2023-03-20T10:55:38.803Z,99270.34
2023-03-20T10:56:55.910Z,99276.69
2023-03-20T10:58:22.766Z,99274.75
2023-03-20T10:59:42.326Z,99267.13
2023-03-20T11:00:46.141Z,99267.69
2023-03-20T11:01:50.061Z,99273.63
2023-03-20T11:02:53.744Z,99269.38
2023-03-20T11:03:57.594Z,99269.38
2023-03-20T11:05:20.553Z,99269.34
2023-03-20T11:06:34.642Z,99272.03
2023-03-20T11:07:38.920Z,99273.03
2023-03-20T11:08:49.280Z,99267.38
2023-03-20T11:10:06.513Z,99276.28
2023-03-20T11:11:11.578Z,99265.25
2023-03-20T11:12:20.829Z,99269.66
2023-03-20T11:13:32.961Z,99269.91
2023-03-20T11:14:41.046Z,99259.63
2023-03-20T11:15:46.102Z,99265.41
2023-03-20T11:16:54.551Z,99270.22
2023-03-20T11:18:02.188Z,99267.09
2023-03-20T11:19:11.831Z,99265.13
2023-03-20T11:20:17.002Z,99261.19
2023-03-20T11:21:29.085Z,99267.44
2023-03-20T11:22:33.375Z,99261.19
2023-03-20T11:23:37.110Z,99254.72
2023-03-20T11:24:47.203Z,99260.91
2023-03-20T11:25:59.907Z,99258.38
2023-03-20T11:27:18.602Z,99257.25
2023-03-20T11:28:48.670Z,99254.03
2023-03-20T11:29:55.380Z,99259.97
2023-03-20T11:31:14.034Z,99253.03
2023-03-20T11:32:41.243Z,99265.03
2023-03-20T11:33:52.150Z,99264.47
2023-03-20T11:34:57.836Z,99256.72
2023-03-20T11:36:01.614Z,99249.94
2023-03-20T11:37:33.807Z,99258.13
2023-03-20T11:38:46.877Z,99264.88
2023-03-20T11:40:14.572Z,99264.75
2023-03-20T11:41:31.675Z,99259.09
2023-03-20T11:42:37.625Z,99258.41
2023-03-20T11:43:45.925Z,99257.97
2023-03-20T11:45:00.118Z,99256.72
2023-03-20T11:46:04.872Z,99256.16
2023-03-20T11:47:25.166Z,99258.97
2023-03-20T11:48:46.829Z,99259.09
2023-03-20T11:49:58.939Z,99257.69
2023-03-20T11:51:11.219Z,99259.69
2023-03-20T11:52:25.123Z,99256.31
2023-03-20T11:53:32.564Z,99263.91
2023-03-20T11:54:38.700Z,99264.59
2023-03-20T11:55:58.271Z,99255.44
2023-03-20T11:57:02.548Z,99255.00
2023-03-20T11:58:15.170Z,99260.94
2023-03-20T11:59:20.423Z,99245.28
2023-03-20T12:00:39.736Z,99243.44
2023-03-20T12:01:54.140Z,99243.16
2023-03-20T12:02:57.922Z,99238.94
2023-03-20T12:04:38.102Z,99239.09
2023-03-20T12:05:42.548Z,99237.63
2023-03-20T12:07:13.987Z,99249.19
2023-03-20T12:08:27.315Z,99243.00
2023-03-20T12:09:41.139Z,99244.56
2023-03-20T12:10:55.693Z,99243.16
2023-03-20T12:12:20.308Z,99235.25
2023-03-20T12:13:41.320Z,99231.59
2023-03-20T12:15:12.702Z,99235.94
2023-03-20T12:16:25.201Z,99229.75
2023-03-20T12:17:52.670Z,99234.25
2023-03-20T12:19:11.601Z,99231.84
2023-03-20T12:20:46.939Z,99237.16
2023-03-20T12:22:15.113Z,99236.31
2023-03-20T12:23:40.356Z,99230.53
2023-03-20T12:24:58.186Z,99222.09
2023-03-20T12:26:20.096Z,99230.91
2023-03-20T12:27:34.767Z,99222.63
2023-03-20T12:28:47.160Z,99235.19
2023-03-20T12:30:06.698Z,99219.81
2023-03-20T12:31:42.601Z,99222.63
2023-03-20T12:33:05.413Z,99225.44
2023-03-20T12:34:41.713Z,99235.34
2023-03-20T12:35:55.134Z,99228.56
2023-03-20T12:36:59.367Z,99229.88
2023-03-20T12:38:11.272Z,99225.66
2023-03-20T12:39:24.919Z,99226.63
2023-03-20T12:40:44.206Z,99223.13
2023-03-20T12:42:21.065Z,99224.81
2023-03-20T12:43:30.824Z,99219.31
2023-03-20T12:45:22.178Z,99221.84
2023-03-20T12:46:47.437Z,99218.03
2023-03-20T12:48:17.036Z,99210.97
2023-03-20T12:49:20.957Z,99216.47
2023-03-20T12:50:40.154Z,99215.94
2023-03-20T12:52:20.994Z,99217.88
2023-03-20T12:54:04.588Z,99220.72
2023-03-20T12:55:26.690Z,99219.72
2023-03-20T12:57:12.801Z,99213.38
2023-03-20T12:59:12.873Z,99210.69
2023-03-20T13:00:40.790Z,99209.41
2023-03-20T13:02:10.930Z,99212.41
2023-03-20T13:03:48.107Z,99214.66
2023-03-20T13:05:07.013Z,99208.72
2023-03-20T13:06:15.516Z,99218.47
2023-03-20T13:07:41.634Z,99205.91
2023-03-20T13:08:48.419Z,99214.63
2023-03-20T13:10:12.507Z,99213.78
2023-03-20T13:11:42.089Z,99214.22
2023-03-20T13:13:09.658Z,99201.81
2023-03-20T13:15:11.041Z,99206.16
2023-03-20T13:16:48.219Z,99205.91
2023-03-20T13:18:24.994Z,99204.38
2023-03-20T13:19:46.697Z,99207.47
2023-03-20T13:21:04.644Z,99208.59
2023-03-20T13:22:28.473Z,99196.31
2023-03-20T13:23:42.986Z,99191.25
2023-03-20T13:25:34.398Z,99196.88
2023-03-20T13:26:59.105Z,99193.50
2023-03-20T13:28:32.529Z,99194.22
2023-03-20T13:30:01.719Z,99201.13
2023-03-20T13:31:41.656Z,99194.75
2023-03-20T13:33:22.536Z,99200.84
2023-03-20T13:35:13.961Z,99190.97
2023-03-20T13:37:22.263Z,99202.25
2023-03-20T13:38:42.652Z,99190.81
2023-03-20T13:39:56.549Z,99186.47
2023-03-20T13:41:10.490Z,99189.13
2023-03-20T13:42:28.058Z,99183.94
2023-03-20T13:43:57.439Z,99188.13
2023-03-20T13:45:19.541Z,99185.47
2023-03-20T13:46:38.492Z,99188.69
2023-03-20T13:47:45.659Z,99191.09
2023-03-20T13:48:51.653Z,99192.94
2023-03-20T13:50:16.321Z,99190.66
2023-03-20T13:52:09.786Z,99186.44
2023-03-20T13:53:53.155Z,99192.66
2023-03-20T13:55:22.635Z,99197.19
2023-03-20T13:56:52.544Z,99191.50
2023-03-20T13:58:34.303Z,99193.50
2023-03-20T14:00:02.675Z,99185.88
2023-03-20T14:01:24.108Z,99187.16
2023-03-20T14:03:11.822Z,99182.47
2023-03-20T14:04:23.421Z,99181.47
2023-03-20T14:05:38.906Z,99188.00
2023-03-20T14:06:57.184Z,99188.69